createdAt,value
2023-05-09T00:01:46.781Z,100586.44
2023-05-09T00:04:50.093Z,100583.56
2023-05-09T00:07:52.134Z,100583.56
2023-05-09T00:10:53.925Z,100586.22
2023-05-09T00:13:55.532Z,100584.34
2023-05-09T00:16:59.254Z,100585.53
2023-05-09T00:20:10.682Z,100588.69
2023-05-09T00:23:12.361Z,100585.47
2023-05-09T00:26:14.151Z,100589.81
2023-05-09T00:29:18.308Z,100581.66
2023-05-09T00:32:20.539Z,100576.34
2023-05-09T00:35:24.101Z,100574.50
2023-05-09T00:38:26.114Z,100564.47
2023-05-09T00:41:28.155Z,100561.66
2023-05-09T00:44:30.042Z,100555.44
2023-05-09T00:47:32.139Z,100557.41
2023-05-09T00:50:36.270Z,100557.19
2023-05-09T00:53:38.685Z,100554.56
2023-05-09T00:56:41.033Z,100557.72
2023-05-09T00:59:42.926Z,100548.72
2023-05-09T01:02:48.248Z,100544.75
2023-05-09T01:05:58.339Z,100539.19
2023-05-09T01:09:05.983Z,100543.09
2023-05-09T01:12:16.477Z,100545.78
2023-05-09T01:15:25.161Z,100537.91
2023-05-09T01:18:33.382Z,100539.00
2023-05-09T01:21:43.419Z,100537.38
2023-05-09T01:25:08.158Z,100533.94
2023-05-09T01:28:14.424Z,100533.72
2023-05-09T01:31:18.866Z,100522.91
2023-05-09T01:34:25.632Z,100528.47
2023-05-09T01:37:31.831Z,100525.72
2023-05-09T01:40:35.894Z,100523.31
2023-05-09T01:43:39.524Z,100519.03
2023-05-09T01:46:44.241Z,100506.34
2023-05-09T01:49:48.028Z,100500.94
2023-05-09T01:52:54.925Z,100510.06
2023-05-09T01:55:58.279Z,100504.31
2023-05-09T01:59:02.433Z,100503.41
2023-05-09T02:02:07.637Z,100497.84
2023-05-09T02:05:12.052Z,100497.22
2023-05-09T02:08:15.110Z,100492.28
2023-05-09T02:11:17.093Z,100499.88
2023-05-09T02:14:18.986Z,100496.44
2023-05-09T02:17:22.132Z,100496.31
2023-05-09T02:20:24.005Z,100492.88
2023-05-09T02:23:26.001Z,100492.22
2023-05-09T02:26:28.943Z,100487.38
2023-05-09T02:29:40.243Z,100491.59
2023-05-09T02:32:45.627Z,100487.19
2023-05-09T02:35:48.749Z,100479.09
2023-05-09T02:38:50.858Z,100476.88
2023-05-09T02:41:52.710Z,100475.81
2023-05-09T02:44:55.399Z,100479.41
2023-05-09T02:47:59.285Z,100477.16
2023-05-09T02:51:01.390Z,100482.94
2023-05-09T02:54:03.652Z,100473.38
2023-05-09T02:57:05.860Z,100471.31
2023-05-09T03:00:12.034Z,100474.28
2023-05-09T03:03:17.916Z,100472.69
2023-05-09T03:06:20.231Z,100463.22
2023-05-09T03:09:22.067Z,100468.03
2023-05-09T03:12:24.157Z,100469.06
2023-05-09T03:15:28.299Z,100460.63
2023-05-09T03:18:32.126Z,100456.41
2023-05-09T03:21:34.296Z,100457.75
2023-05-09T03:24:36.433Z,100459.59
2023-05-09T03:27:38.189Z,100460.00
2023-05-09T03:30:43.037Z,100457.09
2023-05-09T03:33:49.428Z,100455.09
2023-05-09T03:36:51.497Z,100445.19
2023-05-09T03:39:53.316Z,100447.47
2023-05-09T03:42:55.138Z,100453.53
2023-05-09T03:45:56.826Z,100451.03
2023-05-09T03:49:02.410Z,100449.94
2023-05-09T03:52:05.624Z,100440.06
2023-05-09T03:55:09.443Z,100444.66
2023-05-09T03:58:12.419Z,100450.34
2023-05-09T04:01:17.007Z,100453.50
2023-05-09T04:04:21.127Z,100458.53
2023-05-09T04:07:23.063Z,100452.72
2023-05-09T04:10:25.612Z,100467.13
2023-05-09T04:13:30.030Z,100463.66
2023-05-09T04:16:34.081Z,100459.56
2023-05-09T04:19:37.608Z,100451.22
2023-05-09T04:22:39.341Z,100455.56
2023-05-09T04:25:41.156Z,100456.09
2023-05-09T04:28:45.912Z,100453.03
2023-05-09T04:31:50.217Z,100457.34
2023-05-09T04:34:54.731Z,100454.91
2023-05-09T04:38:00.797Z,100459.84
2023-05-09T04:41:02.986Z,100456.22
2023-05-09T04:44:05.374Z,100447.84
2023-05-09T04:47:07.450Z,100447.16
2023-05-09T04:50:11.797Z,100442.91
2023-05-09T04:53:13.512Z,100434.66
2023-05-09T04:56:16.527Z,100442.31
2023-05-09T04:59:20.683Z,100444.09
2023-05-09T05:02:22.730Z,100444.34
2023-05-09T05:05:28.024Z,100431.97
2023-05-09T05:08:30.024Z,100433.50
2023-05-09T05:11:31.926Z,100428.25
2023-05-09T05:14:34.297Z,100435.44
2023-05-09T05:17:39.576Z,100430.94
2023-05-09T05:20:44.637Z,100428.41
2023-05-09T05:23:46.612Z,100429.81
2023-05-09T05:26:49.869Z,100431.81
2023-05-09T05:29:51.751Z,100429.72
2023-05-09T05:32:53.636Z,100429.53
2023-05-09T05:35:57.967Z,100427.69
2023-05-09T05:38:59.862Z,100419.84
2023-05-09T05:42:01.950Z,100417.69
2023-05-09T05:45:06.992Z,100409.97
2023-05-09T05:48:13.403Z,100411.44
2023-05-09T05:51:16.620Z,100414.56
2023-05-09T05:54:19.109Z,100408.91
2023-05-09T05:57:21.888Z,100411.75
2023-05-09T06:00:24.002Z,100400.94
2023-05-09T06:03:33.163Z,100402.16
2023-05-09T06:06:40.579Z,100406.06
2023-05-09T06:09:42.389Z,100406.78
2023-05-09T06:12:45.071Z,100418.06
2023-05-09T06:15:47.237Z,100407.34
2023-05-09T06:18:49.084Z,100407.13
2023-05-09T06:21:52.744Z,100402.75
2023-05-09T06:24:54.679Z,100397.59
2023-05-09T06:27:56.797Z,100395.69
2023-05-09T06:30:59.048Z,100393.09
2023-05-09T06:34:01.004Z,100399.38
2023-05-09T06:37:04.296Z,100392.78
2023-05-09T06:40:07.490Z,100390.81
2023-05-09T06:43:09.482Z,100384.81
2023-05-09T06:46:11.277Z,100381.19
2023-05-09T06:49:14.286Z,100380.34
2023-05-09T06:52:17.407Z,100377.09
2023-05-09T06:55:19.271Z,100378.78
2023-05-09T06:58:21.115Z,100377.78
2023-05-09T07:01:23.053Z,100368.06
2023-05-09T07:04:25.104Z,100363.69
2023-05-09T07:07:28.302Z,100348.19
2023-05-09T07:10:30.304Z,100356.19
2023-05-09T07:13:31.950Z,100351.69
2023-05-09T07:16:36.644Z,100355.97
2023-05-09T07:19:39.270Z,100349.59
2023-05-09T07:22:42.405Z,100356.03
2023-05-09T07:25:45.200Z,100354.00
2023-05-09T07:28:47.242Z,100338.09
2023-05-09T07:31:49.214Z,100333.09
2023-05-09T07:34:50.949Z,100322.47
2023-05-09T07:37:54.329Z,100330.66
2023-05-09T07:40:56.288Z,100320.34
2023-05-09T07:43:58.283Z,100319.31
2023-05-09T07:47:01.498Z,100322.38
2023-05-09T07:50:03.424Z,100329.53
2023-05-09T07:53:07.026Z,100318.41
2023-05-09T07:56:08.755Z,100323.59
2023-05-09T07:59:10.650Z,100321.16
2023-05-09T08:02:12.488Z,100319.19
2023-05-09T08:05:14.593Z,100311.44
2023-05-09T08:08:17.704Z,100309.50
2023-05-09T08:11:19.475Z,100302.59
2023-05-09T08:14:21.280Z,100303.16
2023-05-09T08:17:23.158Z,100295.53
2023-05-09T08:20:25.880Z,100293.25
2023-05-09T08:23:30.313Z,100280.56
2023-05-09T08:26:32.207Z,100278.34
2023-05-09T08:29:33.916Z,100270.00
2023-05-09T08:32:36.334Z,100259.03
2023-05-09T08:35:38.204Z,100261.19
2023-05-09T08:38:41.411Z,100260.84
2023-05-09T08:41:43.646Z,100261.72
2023-05-09T08:44:45.543Z,100258.44
2023-05-09T08:47:47.556Z,100251.66
2023-05-09T08:50:49.822Z,100258.47
2023-05-09T08:53:54.578Z,100259.22
2023-05-09T08:56:57.905Z,100256.84
2023-05-09T09:00:01.223Z,100250.28
2023-05-09T09:03:04.126Z,100246.06
2023-05-09T09:06:08.412Z,100239.06
2023-05-09T09:09:12.938Z,100242.47
2023-05-09T09:12:16.632Z,100242.31
2023-05-09T09:15:22.150Z,100235.88
2023-05-09T09:18:30.221Z,100229.16
2023-05-09T09:21:33.151Z,100226.19
2023-05-09T09:24:36.474Z,100216.84
2023-05-09T09:27:38.451Z,100216.94
2023-05-09T09:30:44.504Z,100211.47
2023-05-09T09:33:46.436Z,100207.56
2023-05-09T09:36:51.515Z,100205.34
2023-05-09T09:39:56.179Z,100196.72
2023-05-09T09:42:58.166Z,100197.34
2023-05-09T09:46:04.107Z,100194.00
2023-05-09T09:49:05.986Z,100190.69
2023-05-09T09:52:07.803Z,100184.56
2023-05-09T09:55:11.189Z,100179.50
2023-05-09T09:58:16.995Z,100180.50
2023-05-09T10:01:20.846Z,100170.34
2023-05-09T10:04:23.345Z,100167.88
2023-05-09T10:07:25.497Z,100160.75
2023-05-09T10:10:32.588Z,100156.25
2023-05-09T10:13:36.359Z,100150.63
2023-05-09T10:16:43.935Z,100157.84
2023-05-09T10:19:49.233Z,100145.16
2023-05-09T10:22:57.088Z,100143.16
2023-05-09T10:26:10.311Z,100137.38
2023-05-09T10:29:13.558Z,100136.69
2023-05-09T10:32:23.235Z,100126.53
2023-05-09T10:35:32.371Z,100113.72
2023-05-09T10:38:35.978Z,100114.84
2023-05-09T10:41:40.253Z,100120.28
2023-05-09T10:44:42.470Z,100100.81
2023-05-09T10:47:45.371Z,100093.81
2023-05-09T10:50:47.827Z,100092.09
2023-05-09T10:53:51.130Z,100084.72
2023-05-09T10:56:54.492Z,100073.19
2023-05-09T10:59:57.566Z,100070.19
2023-05-09T11:03:06.787Z,100059.53
2023-05-09T11:06:08.967Z,100049.09
2023-05-09T11:09:38.689Z,100052.09
2023-05-09T11:12:57.697Z,100043.59
2023-05-09T11:16:09.754Z,100030.44
2023-05-09T11:19:11.711Z,100033.06
2023-05-09T11:22:15.077Z,100025.50
2023-05-09T11:25:17.977Z,100026.06
2023-05-09T11:28:29.008Z,100022.50
2023-05-09T11:31:31.030Z,100022.44
2023-05-09T11:34:33.656Z,100022.59
2023-05-09T11:37:39.730Z,100012.06
2023-05-09T11:40:42.073Z,100002.06
2023-05-09T11:43:45.658Z,100004.81
2023-05-09T11:46:50.957Z,100002.09
2023-05-09T11:49:52.927Z,99997.59
2023-05-09T11:52:55.164Z,99994.25
2023-05-09T11:55:57.328Z,99992.72
2023-05-09T11:59:00.828Z,99984.00
2023-05-09T12:02:04.085Z,99982.31
2023-05-09T12:05:11.376Z,99969.81
2023-05-09T12:08:13.907Z,99962.47
2023-05-09T12:11:15.896Z,99963.56
2023-05-09T12:14:28.572Z,99949.47
2023-05-09T12:17:30.570Z,99957.50
2023-05-09T12:20:47.611Z,99948.44
2023-05-09T12:23:51.809Z,99942.53
2023-05-09T12:26:57.350Z,99938.38
2023-05-09T12:30:01.917Z,99929.59
2023-05-09T12:33:04.361Z,99932.19
2023-05-09T12:36:08.980Z,99921.28
2023-05-09T12:39:10.869Z,99909.69
2023-05-09T12:42:13.714Z,99911.31
2023-05-09T12:45:17.197Z,99905.81
2023-05-09T12:48:23.033Z,99901.53
2023-05-09T12:51:24.847Z,99895.69
2023-05-09T12:54:30.032Z,99887.47
2023-05-09T12:57:31.997Z,99883.66
2023-05-09T13:00:43.532Z,99876.13
2023-05-09T13:03:51.037Z,99875.00
2023-05-09T13:06:55.704Z,99869.03
2023-05-09T13:09:57.572Z,99863.75
2023-05-09T13:12:59.475Z,99858.84
2023-05-09T13:16:04.223Z,99851.88
2023-05-09T13:19:06.563Z,99850.28
2023-05-09T13:22:09.868Z,99848.63
2023-05-09T13:25:16.822Z,99841.34
2023-05-09T13:28:18.799Z,99831.56
2023-05-09T13:31:22.816Z,99827.00
2023-05-09T13:34:24.714Z,99811.84
2023-05-09T13:37:29.069Z,99821.38
2023-05-09T13:40:30.792Z,99813.28
2023-05-09T13:43:32.713Z,99806.63
2023-05-09T13:46:37.331Z,99793.34
2023-05-09T13:49:39.433Z,99800.13
2023-05-09T13:52:41.238Z,99790.06
2023-05-09T13:55:43.366Z,99789.66
2023-05-09T13:58:47.116Z,99798.31
2023-05-09T14:01:50.370Z,99787.47
2023-05-09T14:04:52.216Z,99783.53
2023-05-09T14:07:54.701Z,99790.09
2023-05-09T14:10:56.552Z,99785.50
2023-05-09T14:13:58.353Z,99782.59
2023-05-09T14:17:01.950Z,99774.97
2023-05-09T14:20:04.387Z,99770.69
2023-05-09T14:23:06.163Z,99767.13
2023-05-09T14:26:08.619Z,99756.41
2023-05-09T14:29:10.909Z,99754.84
2023-05-09T14:32:14.545Z,99747.84
2023-05-09T14:35:16.959Z,99738.31
2023-05-09T14:38:19.168Z,99740.84
2023-05-09T14:41:22.185Z,99727.03
2023-05-09T14:44:25.134Z,99715.88
2023-05-09T14:47:28.570Z,99711.31
2023-05-09T14:50:30.989Z,99712.53
2023-05-09T14:53:35.475Z,99709.91
2023-05-09T14:56:37.444Z,99698.50
2023-05-09T14:59:39.145Z,99699.28
2023-05-09T15:02:42.576Z,99691.88
2023-05-09T15:05:44.831Z,99692.88
2023-05-09T15:08:46.880Z,99684.94
2023-05-09T15:11:49.719Z,99674.63
2023-05-09T15:14:53.836Z,99683.41
2023-05-09T15:17:57.796Z,99676.38
2023-05-09T15:20:59.736Z,99670.94
2023-05-09T15:24:02.417Z,99666.88
2023-05-09T15:27:04.486Z,99671.06
2023-05-09T15:30:07.812Z,99653.91
2023-05-09T15:33:11.384Z,99656.47
2023-05-09T15:36:13.479Z,99659.25
2023-05-09T15:39:15.461Z,99654.69
2023-05-09T15:42:19.030Z,99658.75
2023-05-09T15:45:20.953Z,99642.16
2023-05-09T15:48:24.881Z,99644.09
2023-05-09T15:51:29.425Z,99644.50
2023-05-09T15:54:31.785Z,99633.06
2023-05-09T15:57:34.013Z,99642.84
2023-05-09T16:00:36.062Z,99645.13
2023-05-09T16:03:39.664Z,99642.00
2023-05-09T16:06:41.978Z,99636.00
2023-05-09T16:09:44.658Z,99637.16
2023-05-09T16:12:46.427Z,99633.72
2023-05-09T16:15:49.921Z,99619.25
2023-05-09T16:18:53.494Z,99621.09
2023-05-09T16:21:55.226Z,99621.28
2023-05-09T16:24:57.057Z,99611.19
2023-05-09T16:27:59.023Z,99604.97
2023-05-09T16:31:04.833Z,99608.47
2023-05-09T16:34:08.220Z,99603.56
2023-05-09T16:37:10.265Z,99598.25
2023-05-09T16:40:13.578Z,99596.47
2023-05-09T16:43:16.344Z,99591.38
2023-05-09T16:46:18.292Z,99590.13
2023-05-09T16:49:21.589Z,99576.75
2023-05-09T16:52:24.038Z,99577.25
2023-05-09T16:55:26.062Z,99586.19
2023-05-09T16:58:28.051Z,99575.16
2023-05-09T17:01:30.230Z,99584.47
2023-05-09T17:04:35.309Z,99579.59
2023-05-09T17:07:39.499Z,99584.91
2023-05-09T17:10:42.170Z,99584.22
2023-05-09T17:13:44.277Z,99588.13
2023-05-09T17:16:46.139Z,99585.63
2023-05-09T17:19:49.757Z,99586.50
2023-05-09T17:22:51.663Z,99575.72
2023-05-09T17:25:53.532Z,99587.19
2023-05-09T17:28:56.637Z,99577.31
2023-05-09T17:35:25.779Z,99572.25
2023-05-09T17:38:27.517Z,99577.78
2023-05-09T17:41:29.440Z,99581.28
2023-05-09T17:44:31.356Z,99571.81
2023-05-09T17:47:33.458Z,99576.41
2023-05-09T17:50:39.088Z,99583.59
2023-05-09T17:53:40.767Z,99587.25
2023-05-09T17:56:44.294Z,99583.25
2023-05-09T17:59:47.860Z,99586.34
2023-05-09T18:02:51.039Z,99591.56
2023-05-09T18:05:54.357Z,99586.25
2023-05-09T18:08:56.162Z,99598.38
2023-05-09T18:11:59.071Z,99601.03
2023-05-09T18:15:00.945Z,99602.94
2023-05-09T18:18:03.321Z,99601.69
2023-05-09T18:21:07.985Z,99595.78
2023-05-09T18:24:10.102Z,99591.53
2023-05-09T18:27:11.946Z,99601.66
2023-05-09T18:30:15.107Z,99604.78
2023-05-09T18:33:17.042Z,99607.88
2023-05-09T18:36:20.638Z,99636.63
2023-05-09T18:39:22.494Z,99641.53
2023-05-09T18:42:24.213Z,99654.06
2023-05-09T18:45:25.983Z,99657.50
2023-05-09T18:48:31.188Z,99647.25
2023-05-09T18:51:35.801Z,99648.56
2023-05-09T18:54:38.177Z,99649.91
2023-05-09T18:57:40.601Z,99646.34
2023-05-09T19:00:42.932Z,99632.91
2023-05-09T19:03:54.020Z,99633.84
2023-05-09T19:06:59.204Z,99628.44
2023-05-09T19:10:01.662Z,99626.81
2023-05-09T19:13:04.601Z,99628.66
2023-05-09T19:16:07.676Z,99635.06
2023-05-09T19:19:09.770Z,99632.00
2023-05-09T19:22:13.491Z,99627.59
2023-05-09T19:25:15.558Z,99623.97
2023-05-09T19:28:18.898Z,99631.28
2023-05-09T19:31:21.456Z,99626.78
2023-05-09T19:34:24.358Z,99634.53
2023-05-09T19:37:28.168Z,99637.78
2023-05-09T19:40:30.380Z,99640.00
2023-05-09T19:43:35.744Z,99631.34
2023-05-09T19:46:42.720Z,99633.06
2023-05-09T19:49:45.428Z,99644.47
2023-05-09T19:52:51.764Z,99634.78
2023-05-09T19:55:53.806Z,99632.44
2023-05-09T19:58:55.595Z,99637.00
2023-05-09T20:01:57.969Z,99629.06
2023-05-09T20:05:00.464Z,99626.72
2023-05-09T20:08:04.213Z,99634.97
2023-05-09T20:11:06.616Z,99637.31
2023-05-09T20:14:08.429Z,99630.47
2023-05-09T20:17:10.813Z,99629.38
2023-05-09T20:20:13.521Z,99633.81
2023-05-09T20:23:17.398Z,99632.28
2023-05-09T20:26:19.421Z,99636.38
2023-05-09T20:29:21.418Z,99638.31
2023-05-09T20:35:49.817Z,99633.50
2023-05-09T20:38:53.460Z,99626.38
2023-05-09T20:42:02.625Z,99628.22
2023-05-09T20:45:05.465Z,99634.66
2023-05-09T20:48:07.813Z,99627.97
2023-05-09T20:51:09.930Z,99627.34
2023-05-09T20:54:13.519Z,99625.13
2023-05-09T20:57:15.696Z,99631.13
2023-05-09T21:00:18.207Z,99616.09
2023-05-09T21:03:20.244Z,99622.81
2023-05-09T21:06:22.278Z,99620.69
2023-05-09T21:09:28.685Z,99619.75
2023-05-09T21:12:30.766Z,99613.75
2023-05-09T21:15:32.806Z,99608.78
2023-05-09T21:18:34.717Z,99608.97
2023-05-09T21:21:36.660Z,99610.50
2023-05-09T21:24:40.133Z,99611.13
2023-05-09T21:27:42.021Z,99605.66
2023-05-09T21:30:44.207Z,99610.81
2023-05-09T21:33:46.029Z,99601.47
2023-05-09T21:36:47.934Z,99600.34
2023-05-09T21:39:51.090Z,99601.97
2023-05-09T21:42:52.792Z,99590.38
2023-05-09T21:45:55.144Z,99598.50
2023-05-09T21:48:56.751Z,99596.09
2023-05-09T21:51:58.840Z,99592.22
2023-05-09T21:55:05.481Z,99590.81
2023-05-09T21:58:07.412Z,99591.31
2023-05-09T22:01:09.193Z,99588.59
2023-05-09T22:04:11.746Z,99581.66
2023-05-09T22:07:13.442Z,99593.16
2023-05-09T22:10:17.293Z,99579.75
2023-05-09T22:13:19.504Z,99585.75
2023-05-09T22:16:22.461Z,99585.38
2023-05-09T22:19:25.072Z,99585.56
2023-05-09T22:22:29.788Z,99581.06
2023-05-09T22:25:32.910Z,99584.13
2023-05-09T22:28:34.666Z,99590.25
2023-05-09T22:31:36.617Z,99580.59
2023-05-09T22:34:38.562Z,99578.94
2023-05-09T22:37:43.881Z,99612.09
2023-05-09T22:40:47.589Z,99627.88
2023-05-09T22:43:49.484Z,99624.72
2023-05-09T22:46:51.425Z,99621.78
2023-05-09T22:49:53.262Z,99629.91
2023-05-09T22:52:55.069Z,99629.50
2023-05-09T22:55:58.330Z,99629.28
2023-05-09T22:59:02.653Z,99627.97
2023-05-09T23:02:04.806Z,99642.72
2023-05-09T23:05:08.752Z,99638.25
2023-05-09T23:08:10.709Z,99641.03
2023-05-09T23:11:13.989Z,99643.38
2023-05-09T23:14:15.778Z,99643.88
2023-05-09T23:17:17.650Z,99648.38
2023-05-09T23:20:19.637Z,99650.44
2023-05-09T23:23:21.691Z,99648.09
2023-05-09T23:26:24.966Z,99655.81
2023-05-09T23:29:26.754Z,99653.75
2023-05-09T23:32:31.535Z,99649.50
2023-05-09T23:35:33.340Z,99651.69
2023-05-09T23:38:35.399Z,99656.19
2023-05-09T23:41:38.890Z,99654.19
2023-05-09T23:44:40.534Z,99655.81
2023-05-09T23:47:42.279Z,99653.88
2023-05-09T23:50:44.391Z,99652.63
2023-05-09T23:53:46.108Z,99657.00
2023-05-09T23:56:49.609Z,99652.72
2023-05-09T23:59:51.538Z,99660.44
